Time;durP1;ratioP1;P1;durP2;ratioP2;P2;SDS_P1;SDS_P2;PMS_P1;PMS_P2;Temp;Humidity;BMP_temperature;BMP_pressure;BME280_temperature;BME280_humidity;BME280_pressure;Samples;Min_cycle;Max_cycle;Signal;HPM_P1;HPM_P2
2022/04/19 00:00:42;;;;;;;3.60;2.40;;;6.10;99.90;6.50;96412.00;;;;4970147;28;20194;-67
2022/04/19 00:03:14;;;;;;;3.00;2.10;;;6.10;99.90;6.70;96415.00;;;;4969515;28;20199;-68
2022/04/19 00:05:43;;;;;;;1.53;1.43;;;6.10;99.90;6.80;96413.00;;;;4969454;28;20282;-67
2022/04/19 00:08:14;;;;;;;2.03;1.83;;;6.10;99.90;6.70;96404.00;;;;4964649;28;20234;-67
2022/04/19 00:10:44;;;;;;;2.13;1.93;;;6.20;99.90;6.50;96405.00;;;;4969588;28;20190;-67
2022/04/19 00:13:16;;;;;;;2.07;1.87;;;6.20;99.90;6.50;96400.00;;;;4960597;28;20206;-67
2022/04/19 00:15:45;;;;;;;2.23;1.93;;;6.20;99.90;6.70;96399.00;;;;4970635;28;20298;-67
2022/04/19 00:18:15;;;;;;;3.27;2.10;;;6.20;99.90;6.80;96397.00;;;;4966067;28;20223;-68
2022/04/19 00:20:44;;;;;;;2.10;1.70;;;6.20;99.90;7.00;96394.00;;;;4968880;28;20210;-68
2022/04/19 00:23:13;;;;;;;2.07;1.70;;;6.30;99.90;7.10;96394.00;;;;4957501;28;20202;-67
2022/04/19 00:25:45;;;;;;;3.10;2.00;;;6.30;99.90;7.10;96393.00;;;;4967299;28;20252;-68
2022/04/19 00:28:15;;;;;;;2.30;2.00;;;6.40;99.90;7.20;96397.00;;;;4967489;28;20207;-67
2022/04/19 00:30:46;;;;;;;5.33;1.80;;;6.40;99.90;7.20;96400.00;;;;4962958;28;20195;-67
2022/04/19 00:33:14;;;;;;;2.37;2.27;;;6.50;99.90;7.30;96411.00;;;;4966891;28;20192;-67
2022/04/19 00:35:43;;;;;;;2.53;2.17;;;6.50;99.90;7.20;96395.00;;;;4963326;28;20226;-68
2022/04/19 00:38:12;;;;;;;2.00;1.80;;;6.50;99.90;6.90;96383.00;;;;4966385;28;20207;-68
2022/04/19 00:40:40;;;;;;;3.30;2.40;;;6.50;99.90;6.60;96371.00;;;;4959234;28;20203;-68
2022/04/19 00:43:11;;;;;;;2.43;2.20;;;6.40;99.90;6.70;96367.00;;;;4963522;28;20199;-68
2022/04/19 00:45:40;;;;;;;3.23;2.17;;;6.40;99.90;6.80;96372.00;;;;4969428;28;20250;-68
2022/04/19 00:48:10;;;;;;;2.67;2.47;;;6.30;99.90;6.90;96366.00;;;;4966374;28;20262;-68
2022/04/19 00:50:39;;;;;;;2.83;2.17;;;6.30;99.90;7.00;96370.00;;;;4963275;28;20219;-68
2022/04/19 00:53:11;;;;;;;2.40;2.07;;;6.30;99.90;6.90;96355.00;;;;4967787;28;20207;-68
2022/04/19 00:55:40;;;;;;;2.80;2.30;;;6.30;99.90;6.80;96354.00;;;;4963070;28;20246;-68
2022/04/19 00:58:11;;;;;;;2.93;2.10;;;6.20;99.90;6.90;96351.00;;;;4955834;28;20224;-68
2022/04/19 01:00:39;;;;;;;2.47;2.27;;;6.30;99.90;6.80;96352.00;;;;4968400;28;20205;-68
2022/04/19 01:03:08;;;;;;;2.40;2.17;;;6.20;99.90;6.80;96348.00;;;;4954961;28;20203;-68
2022/04/19 01:05:37;;;;;;;2.97;2.50;;;6.20;99.90;6.50;96345.00;;;;4971625;28;20264;-68
2022/04/19 01:08:07;;;;;;;2.23;1.93;;;6.10;99.90;6.60;96351.00;;;;4964715;28;20236;-68
2022/04/19 01:10:36;;;;;;;2.30;1.83;;;6.10;99.90;6.70;96360.00;;;;4967747;28;20196;-68
2022/04/19 01:13:18;;;;;;;2.57;2.27;;;6.10;99.90;6.50;96365.00;;;;4963631;28;20196;-68
2022/04/19 01:15:50;;;;;;;2.23;1.93;;;6.10;99.90;6.30;96349.00;;;;4962737;28;20314;-68
2022/04/19 01:18:20;;;;;;;1.87;1.77;;;6.10;99.90;6.20;96346.00;;;;4963368;28;20195;-68
2022/04/19 01:20:50;;;;;;;3.57;2.73;;;6.00;99.90;6.00;96342.00;;;;4967875;28;20202;-68
2022/04/19 01:23:20;;;;;;;2.70;2.50;;;6.00;99.90;6.00;96342.00;;;;4957651;28;20194;-68
2022/04/19 01:25:49;;;;;;;4.23;2.57;;;5.90;99.90;6.40;96338.00;;;;4961583;28;20219;-68
2022/04/19 01:28:18;;;;;;;3.20;2.40;;;5.90;99.90;6.60;96331.00;;;;4966958;28;20199;-68
2022/04/19 01:30:52;;;;;;;3.30;2.50;;;5.90;99.90;6.60;96329.00;;;;4961131;28;20199;-68
2022/04/19 01:33:22;;;;;;;2.43;2.23;;;5.90;99.90;6.50;96317.00;;;;4961334;28;20274;-69
2022/04/19 01:35:50;;;;;;;2.90;2.47;;;5.90;99.90;6.30;96314.00;;;;4962483;28;20224;-68
2022/04/19 01:38:20;;;;;;;2.77;2.30;;;5.90;99.90;6.60;96325.00;;;;4959881;28;20210;-68
2022/04/19 01:40:49;;;;;;;3.30;2.30;;;5.90;99.90;6.60;96333.00;;;;4958829;28;20191;-68
2022/04/19 01:43:18;;;;;;;4.43;2.70;;;5.90;99.90;6.50;96316.00;;;;4968331;28;20227;-68
2022/04/19 01:45:47;;;;;;;3.20;2.33;;;5.90;99.90;6.50;96323.00;;;;4966324;28;20229;-68
2022/04/19 01:48:16;;;;;;;3.20;2.73;;;5.90;99.90;6.40;96312.00;;;;4959832;28;20199;-68
2022/04/19 01:50:45;;;;;;;3.23;2.83;;;6.00;99.90;6.30;96313.00;;;;4961897;28;20195;-68
2022/04/19 01:53:15;;;;;;;4.13;2.47;;;5.90;99.90;6.40;96316.00;;;;4966916;28;20227;-68
2022/04/19 01:55:46;;;;;;;3.93;2.70;;;5.90;99.90;6.40;96315.00;;;;4957298;28;20219;-68
2022/04/19 01:58:17;;;;;;;3.20;2.83;;;6.00;99.90;6.10;96316.00;;;;4955647;28;20204;-69
2022/04/19 02:00:45;;;;;;;2.87;2.67;;;5.90;99.90;6.10;96308.00;;;;4966402;28;20225;-68
2022/04/19 02:03:14;;;;;;;2.30;2.20;;;5.80;99.90;6.10;96303.00;;;;4965746;28;20195;-68
2022/04/19 02:05:42;;;;;;;3.53;2.57;;;5.80;99.90;6.30;96311.00;;;;4967815;28;20235;-68
2022/04/19 02:08:11;;;;;;;3.60;2.93;;;5.80;99.90;6.40;96307.00;;;;4965036;28;20207;-68
2022/04/19 02:10:39;;;;;;;3.70;2.83;;;5.80;99.90;6.40;96307.00;;;;4964571;28;20204;-68
2022/04/19 02:13:09;;;;;;;5.40;3.47;;;5.80;99.90;6.40;96305.00;;;;4966864;28;20206;-68
2022/04/19 02:15:38;;;;;;;3.63;2.80;;;5.80;99.90;6.40;96307.00;;;;4957475;28;20223;-68
2022/04/19 02:18:07;;;;;;;4.13;2.80;;;5.90;99.90;6.40;96297.00;;;;4964353;28;20211;-68
2022/04/19 02:20:35;;;;;;;3.47;3.00;;;5.90;99.90;6.40;96299.00;;;;4967583;28;20227;-68
2022/04/19 02:23:04;;;;;;;2.93;2.60;;;5.90;99.90;6.40;96294.00;;;;4957262;28;20203;-68
2022/04/19 02:25:32;;;;;;;2.83;2.53;;;5.90;99.90;6.00;96288.00;;;;4962238;28;20218;-68
2022/04/19 02:28:01;;;;;;;2.77;2.57;;;5.90;99.90;6.20;96297.00;;;;4967174;28;20192;-68
2022/04/19 02:30:32;;;;;;;5.27;2.93;;;5.80;99.90;6.30;96293.00;;;;4960316;28;20200;-69
2022/04/19 02:33:02;;;;;;;3.50;3.00;;;5.80;99.90;6.30;96302.00;;;;4967867;28;20250;-68
2022/04/19 02:35:31;;;;;;;5.97;3.50;;;5.80;99.90;6.20;96296.00;;;;4965691;28;20250;-68
2022/04/19 02:38:00;;;;;;;3.30;2.73;;;5.80;99.90;6.10;96286.00;;;;4964438;28;20194;-68
2022/04/19 02:40:29;;;;;;;3.43;3.13;;;5.70;99.90;6.30;96288.00;;;;4962865;28;20226;-68
2022/04/19 02:42:57;;;;;;;3.73;3.27;;;5.70;99.90;6.30;96291.00;;;;4970181;28;20195;-68
2022/04/19 02:45:26;;;;;;;3.43;3.13;;;5.70;99.90;6.30;96292.00;;;;4968206;28;20196;-68
2022/04/19 02:48:04;;;;;;;3.90;3.30;;;5.70;99.90;6.10;96288.00;;;;4971484;28;20199;-68
2022/04/19 02:50:35;;;;;;;4.23;3.13;;;5.70;99.90;5.70;96285.00;;;;4970483;28;20199;-68
2022/04/19 02:53:04;;;;;;;3.73;3.30;;;5.60;99.90;5.50;96274.00;;;;4967700;28;20222;-68
2022/04/19 02:55:32;;;;;;;6.47;3.13;;;5.50;99.90;5.50;96282.00;;;;4965585;28;20538;-69
2022/04/19 02:58:02;;;;;;;4.63;3.47;;;5.50;99.90;5.50;96280.00;;;;4958227;28;20215;-68
2022/04/19 03:00:30;;;;;;;3.57;3.10;;;5.40;99.90;5.70;96283.00;;;;4967974;28;20219;-68
2022/04/19 03:02:59;;;;;;;3.13;2.87;;;5.40;99.90;5.80;96277.00;;;;4969734;28;20199;-68
2022/04/19 03:05:29;;;;;;;2.97;2.73;;;5.40;99.90;5.70;96278.00;;;;4975206;28;20486;-68
2022/04/19 03:07:57;;;;;;;3.00;2.73;;;5.40;99.90;5.60;96275.00;;;;4978948;23;20257;-85
2022/04/19 03:10:26;;;;;;;6.33;2.97;;;5.80;99.90;5.70;96285.00;;;;4973821;28;20234;-85
2022/04/19 03:12:54;;;;;;;4.10;3.70;;;5.30;99.90;5.80;96273.00;;;;4974072;28;20222;-83
2022/04/19 03:15:23;;;;;;;3.50;3.20;;;5.30;99.90;5.90;96273.00;;;;4974229;28;20194;-85
2022/04/19 03:17:51;;;;;;;3.80;3.10;;;5.40;99.90;6.00;96274.00;;;;4973479;28;20199;-83
2022/04/19 03:20:20;;;;;;;3.93;3.27;;;5.40;99.90;5.90;96273.00;;;;4974438;28;20662;-83
2022/04/19 03:28:22;;;;;;;4.47;3.37;;;6.20;99.90;5.90;96275.00;;;;4971715;28;20221;-85
2022/04/19 03:30:51;;;;;;;3.37;3.07;;;5.40;99.90;6.00;96285.00;;;;4974574;28;20238;-84
2022/04/19 03:33:20;;;;;;;3.13;2.83;;;5.40;99.90;6.00;96294.00;;;;4974215;28;20215;-85
2022/04/19 03:35:48;;;;;;;4.10;3.03;;;6.90;99.90;6.10;96287.00;;;;4975391;28;20482;-84
2022/04/19 03:38:18;;;;;;;3.80;3.50;;;5.40;99.90;6.00;96281.00;;;;4974181;28;20199;-85
2022/04/19 03:40:47;;;;;;;3.07;2.80;;;5.50;99.90;6.00;96273.00;;;;4975040;28;20506;-84
2022/04/19 03:43:16;;;;;;;3.83;3.23;;;5.50;99.90;6.00;96283.00;;;;4975632;28;20243;-85
2022/04/19 03:45:44;;;;;;;3.37;3.07;;;5.50;99.90;6.00;96289.00;;;;4973574;28;20199;-85
2022/04/19 03:48:14;;;;;;;4.67;4.03;;;5.50;99.90;6.00;96286.00;;;;4974770;28;20199;-84
2022/04/19 03:50:42;;;;;;;4.33;3.23;;;5.50;99.90;5.90;96272.00;;;;4975766;28;20213;-83
2022/04/19 03:53:11;;;;;;;3.87;3.13;;;5.40;99.90;5.80;96276.00;;;;4976854;28;20231;-81
2022/04/19 03:55:41;;;;;;;3.70;3.40;;;5.40;99.90;5.50;96277.00;;;;4977617;28;20210;-83
2022/04/19 03:58:09;;;;;;;4.33;3.30;;;5.40;99.90;5.60;96270.00;;;;4977553;28;20235;-83
2022/04/19 04:00:38;;;;;;;5.30;3.93;;;5.40;99.90;5.30;96266.00;;;;4976931;28;20621;-82
2022/04/19 04:03:08;;;;;;;4.47;3.77;;;5.30;99.90;5.20;96269.00;;;;4973418;28;20232;-84
2022/04/19 04:05:36;;;;;;;4.40;3.53;;;5.20;99.90;5.30;96272.00;;;;4979766;28;20199;-82
2022/04/19 04:08:06;;;;;;;5.57;3.70;;;5.20;99.90;5.30;96274.00;;;;4976282;28;20239;-84
2022/04/19 04:10:35;;;;;;;3.93;3.53;;;5.10;99.90;5.40;96282.00;;;;4976641;28;20505;-81
2022/04/19 04:13:05;;;;;;;4.37;3.97;;;5.10;99.90;5.50;96277.00;;;;4977590;28;20504;-83
2022/04/19 04:15:33;;;;;;;4.43;3.60;;;5.10;99.90;5.60;96275.00;;;;4975956;28;20522;-84
2022/04/19 04:18:02;;;;;;;4.03;3.73;;;5.10;99.90;5.80;96275.00;;;;4977427;28;20435;-84
2022/04/19 04:20:31;;;;;;;4.40;4.10;;;5.10;99.90;5.90;96285.00;;;;4974921;28;20227;-82
2022/04/19 04:22:59;;;;;;;4.63;4.00;;;5.20;99.90;6.00;96288.00;;;;4980169;28;20447;-84
2022/04/19 04:25:28;;;;;;;6.07;5.57;;;5.20;99.90;6.00;96281.00;;;;4977793;28;20458;-83
2022/04/19 04:27:56;;;;;;;7.50;6.57;;;5.30;99.90;6.00;96286.00;;;;4983489;28;20482;-85
2022/04/19 04:30:26;;;;;;;6.53;5.37;;;5.30;99.90;5.90;96284.00;;;;4983970;28;20453;-82
2022/04/19 04:32:55;;;;;;;6.60;6.00;;;5.30;99.90;5.80;96283.00;;;;4981529;28;20222;-82
2022/04/19 04:35:23;;;;;;;6.70;5.67;;;6.40;99.90;5.90;96284.00;;;;4978847;28;20455;-83
2022/04/19 04:37:51;;;;;;;7.60;6.90;;;5.30;99.90;5.90;96285.00;;;;4978665;28;20203;-83
2022/04/19 04:40:20;;;;;;;7.73;7.03;;;5.30;99.90;6.00;96284.00;;;;4970484;28;20479;-84
2022/04/19 04:42:48;;;;;;;5.50;5.00;;;5.30;99.90;6.00;96272.00;;;;4979401;28;20455;-85
2022/04/19 04:45:17;;;;;;;8.17;6.67;;;5.30;99.90;5.90;96280.00;;;;4979881;28;20241;-82
2022/04/19 04:50:33;;;;;;;6.70;6.20;;;5.30;99.90;6.00;96287.00;;;;4982278;28;20211;-83
2022/04/19 04:53:01;;;;;;;6.53;5.50;;;5.30;99.90;5.90;96274.00;;;;4977938;28;20222;-83
2022/04/19 04:55:30;;;;;;;6.77;6.13;;;5.20;99.90;5.70;96277.00;;;;4980198;28;20195;-83
2022/04/19 04:58:01;;;;;;;8.90;5.90;;;5.20;99.90;5.70;96281.00;;;;4979501;28;20443;-85
2022/04/19 05:00:30;;;;;;;7.30;6.60;;;5.20;99.90;5.80;96285.00;;;;4975918;28;20477;-83
2022/04/19 05:02:59;;;;;;;8.40;7.60;;;5.10;99.90;5.80;96276.00;;;;4976021;28;20225;-85
2022/04/19 05:05:28;;;;;;;6.47;5.93;;;5.10;99.90;5.40;96277.00;;;;4979239;28;20266;-83
2022/04/19 05:07:57;;;;;;;6.70;6.07;;;5.10;99.90;5.20;96277.00;;;;4975247;28;20218;-83
2022/04/19 05:10:25;;;;;;;7.53;6.70;;;5.00;99.90;5.50;96288.00;;;;4974287;28;20266;-84
2022/04/19 05:12:54;;;;;;;7.80;6.40;;;5.00;99.90;5.60;96286.00;;;;4977968;28;20475;-83
2022/04/19 05:15:23;;;;;;;8.30;6.73;;;5.10;99.90;5.70;96288.00;;;;4978780;28;20314;-83
2022/04/19 05:17:51;;;;;;;10.60;6.77;;;5.10;99.90;5.80;96284.00;;;;4977542;28;20441;-81
2022/04/19 05:20:21;;;;;;;7.70;7.00;;;5.10;99.90;5.90;96273.00;;;;4976765;28;20267;-81
2022/04/19 05:22:50;;;;;;;8.27;7.30;;;3.80;99.90;5.90;96277.00;;;;4977854;28;20458;-85
2022/04/19 05:25:18;;;;;;;7.20;6.60;;;5.20;99.90;5.90;96269.00;;;;4977012;28;20299;-81
2022/04/19 05:27:47;;;;;;;6.83;6.23;;;5.20;99.90;5.80;96274.00;;;;4974538;28;20199;-83
2022/04/19 05:30:15;;;;;;;7.13;6.23;;;5.20;99.90;5.80;96272.00;;;;4973545;28;20286;-83
2022/04/19 05:32:44;;;;;;;9.37;5.80;;;5.20;99.90;6.00;96279.00;;;;4977873;28;20223;-85
2022/04/19 05:35:12;;;;;;;6.43;5.83;;;5.20;99.90;5.80;96267.00;;;;4975913;28;20204;-82
2022/04/19 05:37:42;;;;;;;8.23;5.63;;;5.20;99.90;5.50;96279.00;;;;4979254;28;20430;-83
2022/04/19 05:40:11;;;;;;;6.73;5.77;;;5.10;99.90;5.60;96268.00;;;;4981245;28;20462;-84
2022/04/19 05:42:40;;;;;;;8.67;5.93;;;5.00;99.90;5.70;96260.00;;;;4979052;28;20220;-83
2022/04/19 05:45:10;;;;;;;7.03;6.43;;;5.10;99.90;5.80;96263.00;;;;4976678;28;20455;-84
2022/04/19 05:47:38;;;;;;;6.03;5.53;;;5.10;99.90;5.50;96271.00;;;;4979590;28;20443;-83
2022/04/19 05:50:08;;;;;;;6.20;5.70;;;5.10;99.90;5.60;96265.00;;;;4973266;28;20474;-83
2022/04/19 05:52:37;;;;;;;6.63;6.03;;;5.10;99.90;5.50;96269.00;;;;4979330;28;20215;-84
2022/04/19 05:55:09;;;;;;;5.00;4.60;;;5.00;99.90;5.50;96279.00;;;;4977285;28;20234;-85
2022/04/19 05:57:37;;;;;;;5.53;4.50;;;5.00;99.90;5.60;96272.00;;;;4977611;28;20683;-82
2022/04/19 06:00:08;;;;;;;5.60;5.10;;;5.00;99.90;5.60;96278.00;;;;4978444;28;20556;-83
2022/04/19 06:05:22;;;;;;;5.80;5.30;;;5.00;99.90;5.60;96272.00;;;;4987382;28;20203;-85
2022/04/19 06:07:52;;;;;;;6.43;5.63;;;4.90;99.90;5.50;96267.00;;;;4982804;28;20211;-83
2022/04/19 06:10:22;;;;;;;6.10;5.37;;;4.90;99.90;5.60;96270.00;;;;4983253;28;20466;-84
2022/04/19 06:12:50;;;;;;;5.40;4.83;;;4.90;99.90;5.70;96265.00;;;;4982089;28;20525;-82
2022/04/19 06:15:19;;;;;;;6.03;5.53;;;5.80;99.90;5.70;96262.00;;;;4983550;28;20271;-84
2022/04/19 06:17:47;;;;;;;8.03;6.17;;;5.00;99.90;5.70;96259.00;;;;4982946;28;20441;-83
2022/04/19 06:20:16;;;;;;;6.57;5.97;;;5.00;99.90;5.70;96274.00;;;;4983061;28;20443;-83
2022/04/19 06:22:45;;;;;;;4.90;4.40;;;6.00;99.90;5.50;96264.00;;;;4981216;28;20292;-85
2022/04/19 06:25:13;;;;;;;4.97;4.57;;;5.00;99.90;5.40;96263.00;;;;4982857;28;20226;-84
2022/04/19 06:27:43;;;;;;;5.60;5.10;;;4.90;99.90;5.20;96257.00;;;;4982655;28;20502;-82
2022/04/19 06:30:14;;;;;;;7.60;4.93;;;4.90;99.90;5.30;96264.00;;;;4985235;28;20519;-81
2022/04/19 06:32:42;;;;;;;7.40;6.70;;;4.80;99.90;5.40;96257.00;;;;4984948;28;20513;-83
2022/04/19 06:35:11;;;;;;;5.13;4.70;;;4.80;99.90;5.40;96247.00;;;;4985612;28;20435;-84
2022/04/19 06:37:40;;;;;;;5.77;5.27;;;4.70;99.90;5.10;96252.00;;;;4983702;28;20261;-81
2022/04/19 06:40:10;;;;;;;5.70;5.20;;;4.70;99.90;5.20;96251.00;;;;4982405;28;20465;-83
2022/04/19 06:42:39;;;;;;;6.40;5.70;;;4.70;99.90;5.40;96247.00;;;;4982270;28;20518;-82
2022/04/19 06:45:11;;;;;;;5.07;4.67;;;4.80;99.90;5.00;96244.00;;;;4973435;28;20445;-85
2022/04/19 06:47:40;;;;;;;6.67;5.27;;;4.70;99.90;5.00;96250.00;;;;4981600;28;20446;-83
2022/04/19 06:50:10;;;;;;;7.47;4.60;;;4.70;99.90;5.00;96254.00;;;;4981105;28;20486;-82
2022/04/19 06:52:38;;;;;;;4.67;4.27;;;4.70;99.90;4.90;96254.00;;;;4981605;28;20474;-82
2022/04/19 06:55:07;;;;;;;5.10;4.70;;;4.60;99.90;4.80;96252.00;;;;4980562;28;20510;-81
2022/04/19 06:57:37;;;;;;;5.23;4.73;;;4.60;99.90;4.80;96251.00;;;;4981596;28;20203;-84
2022/04/19 07:00:09;;;;;;;5.43;5.00;;;4.60;99.90;4.90;96248.00;;;;4979726;28;20451;-85
2022/04/19 07:02:38;;;;;;;4.30;3.90;;;4.50;99.90;4.80;96256.00;;;;4980983;28;20482;-83
2022/04/19 07:05:08;;;;;;;4.53;3.97;;;4.50;99.90;4.60;96256.00;;;;4980318;28;20479;-83
2022/04/19 07:07:39;;;;;;;4.87;4.40;;;4.50;99.90;4.70;96254.00;;;;4982456;28;20463;-84
2022/04/19 07:10:10;;;;;;;5.03;4.60;;;4.40;99.90;4.70;96251.00;;;;4981933;28;20511;-82
2022/04/19 07:12:40;;;;;;;4.90;4.50;;;4.40;99.90;4.70;96251.00;;;;4982753;28;20451;-83
2022/04/19 07:15:10;;;;;;;4.90;4.50;;;4.40;99.90;4.80;96247.00;;;;4982601;28;20473;-81
2022/04/19 07:17:40;;;;;;;5.03;4.50;;;4.40;99.90;4.60;96247.00;;;;4983648;28;20519;-81
2022/04/19 07:28:29;;;;;;;5.00;4.53;;;4.40;99.90;4.60;96255.00;;;;4980708;28;20442;-82
2022/04/19 07:31:00;;;;;;;4.83;4.20;;;4.40;99.90;4.70;96243.00;;;;4981563;28;20437;-81
2022/04/19 07:33:29;;;;;;;4.50;4.10;;;4.40;99.90;4.80;96244.00;;;;4982039;28;20467;-84
2022/04/19 07:35:58;;;;;;;4.23;3.83;;;4.40;99.90;4.90;96252.00;;;;4981406;28;20462;-82
2022/04/19 07:38:26;;;;;;;4.80;4.20;;;4.40;99.90;5.10;96248.00;;;;4980500;28;20498;-82
2022/04/19 07:40:55;;;;;;;4.90;4.20;;;4.50;99.90;5.20;96243.00;;;;4981908;28;20430;-82
2022/04/19 07:43:23;;;;;;;4.10;3.80;;;4.50;99.90;5.40;96242.00;;;;4979942;28;20781;-82
2022/04/19 07:45:52;;;;;;;4.63;4.23;;;4.60;99.90;5.40;96239.00;;;;4981690;28;20438;-82
2022/04/19 07:48:22;;;;;;;4.03;3.63;;;4.70;99.90;5.30;96238.00;;;;4981094;28;20979;-82
2022/04/19 07:50:50;;;;;;;3.50;3.20;;;4.70;99.90;5.20;96246.00;;;;4979834;28;21096;-82
2022/04/19 07:53:19;;;;;;;3.10;2.87;;;4.70;99.90;5.10;96241.00;;;;4980207;28;20230;-80
2022/04/19 07:55:47;;;;;;;2.93;2.73;;;4.70;99.90;5.40;96241.00;;;;4980671;28;20458;-84
2022/04/19 07:58:16;;;;;;;3.07;2.87;;;4.70;99.90;5.40;96237.00;;;;4979245;28;20467;-83
2022/04/19 08:00:44;;;;;;;3.07;2.87;;;4.80;99.90;5.60;96234.00;;;;4980061;28;20526;-83
2022/04/19 08:03:12;;;;;;;3.73;3.43;;;4.80;99.90;5.30;96228.00;;;;4980616;28;20482;-81
2022/04/19 08:05:43;;;;;;;3.83;3.17;;;4.90;99.90;5.60;96231.00;;;;4980835;28;20437;-82
2022/04/19 08:08:11;;;;;;;3.50;3.20;;;4.90;99.90;5.80;96231.00;;;;4980264;28;20545;-84
2022/04/19 08:10:40;;;;;;;3.50;3.20;;;4.90;99.90;5.80;96219.00;;;;4978429;28;20811;-81
2022/04/19 08:13:09;;;;;;;3.03;2.83;;;5.00;99.90;5.70;96222.00;;;;4979971;28;20250;-83
2022/04/19 08:15:37;;;;;;;2.90;2.70;;;5.00;99.90;5.70;96219.00;;;;4977593;28;20203;-84
2022/04/19 08:18:07;;;;;;;3.27;3.00;;;5.10;99.90;5.70;96215.00;;;;4976907;28;20279;-85
2022/04/19 08:20:36;;;;;;;2.87;2.67;;;5.10;99.90;5.90;96219.00;;;;4978229;28;20191;-84
2022/04/19 08:23:07;;;;;;;2.97;2.77;;;5.20;99.90;5.90;96222.00;;;;4981598;28;20243;-84
2022/04/19 08:25:36;;;;;;;2.70;2.50;;;5.20;99.90;6.00;96227.00;;;;4980657;28;20210;-84
2022/04/19 08:28:06;;;;;;;3.10;2.80;;;5.20;99.90;6.10;96230.00;;;;4975719;28;20207;-84
2022/04/19 08:30:35;;;;;;;3.40;3.10;;;5.20;99.90;6.10;96230.00;;;;4979708;28;20207;-83
2022/04/19 08:33:04;;;;;;;3.63;3.33;;;5.30;99.90;6.10;96220.00;;;;4980067;28;20453;-83
2022/04/19 08:35:32;;;;;;;3.37;3.17;;;5.90;99.90;6.10;96217.00;;;;4980561;28;20195;-83
2022/04/19 08:38:01;;;;;;;4.57;3.73;;;5.40;99.90;6.30;96219.00;;;;4979170;28;20199;-84
2022/04/19 08:40:32;;;;;;;4.00;3.60;;;5.50;99.90;6.50;96221.00;;;;4974851;28;20227;-83
2022/04/19 08:43:01;;;;;;;4.13;3.57;;;5.50;99.90;6.60;96228.00;;;;4979835;28;20230;-84
2022/04/19 08:45:30;;;;;;;3.50;3.20;;;5.60;99.90;6.70;96228.00;;;;4973523;28;20285;-83
2022/04/19 08:48:00;;;;;;;3.40;3.10;;;5.70;99.90;6.80;96230.00;;;;4979426;28;20328;-83
2022/04/19 08:50:30;;;;;;;4.23;2.77;;;5.80;99.90;6.80;96227.00;;;;4978132;28;20199;-83
2022/04/19 08:58:32;;;;;;;2.50;2.37;;;6.00;99.90;6.60;96213.00;;;;4977444;28;20199;-84
2022/04/19 09:01:00;;;;;;;2.70;2.50;;;5.90;99.90;6.60;96218.00;;;;4981308;28;20234;-82
2022/04/19 09:03:29;;;;;;;2.73;2.53;;;6.00;99.90;6.50;96207.00;;;;4980999;28;20226;-84
2022/04/19 09:05:58;;;;;;;2.80;2.60;;;5.90;99.90;6.30;96205.00;;;;4981142;28;20210;-83
2022/04/19 09:08:27;;;;;;;3.30;3.00;;;5.90;99.90;6.50;96204.00;;;;4980242;28;20203;-83
2022/04/19 09:11:06;;;;;;;3.00;2.80;;;5.90;99.90;6.60;96207.00;;;;4981168;28;20199;-83
2022/04/19 09:13:35;;;;;;;3.10;2.90;;;6.80;99.90;6.90;96195.00;;;;4989956;23;20245;-67
2022/04/19 09:16:26;;;;;;;10.20;6.83;;;6.00;99.90;7.00;96203.00;;;;4951166;29;20235;-67
2022/04/19 09:18:54;;;;;;;4.03;3.73;;;6.10;99.90;6.80;96210.00;;;;4948827;28;20204;-66
2022/04/19 09:21:36;;;;;;;2.77;2.57;;;6.10;99.90;7.00;96201.00;;;;4951957;28;20519;-67
2022/04/19 09:24:18;;;;;;;2.83;2.63;;;6.20;99.90;7.00;96189.00;;;;4949956;28;20228;-67
2022/04/19 09:26:49;;;;;;;3.20;3.00;;;6.20;99.90;7.00;96201.00;;;;4983353;23;20297;-67
2022/04/19 09:29:20;;;;;;;3.73;3.30;;;6.30;99.90;7.10;96194.00;;;;4968683;28;20226;-67
2022/04/19 09:31:51;;;;;;;2.90;2.70;;;6.30;99.90;7.10;96196.00;;;;4970657;28;20195;-68
2022/04/19 09:34:29;;;;;;;3.27;2.93;;;6.30;99.90;7.00;96193.00;;;;4970471;28;20218;-68
2022/04/19 09:37:09;;;;;;;2.77;2.60;;;6.40;99.90;7.40;96197.00;;;;4966988;28;20301;-68
2022/04/19 09:39:38;;;;;;;2.90;2.70;;;6.40;99.90;7.20;96188.00;;;;4967737;28;20210;-68
2022/04/19 09:42:11;;;;;;;2.43;2.20;;;6.50;99.90;7.60;96190.00;;;;4972933;28;20226;-68
2022/04/19 09:44:41;;;;;;;2.50;2.30;;;6.50;99.90;7.60;96182.00;;;;4973970;28;20237;-67
2022/04/19 09:47:11;;;;;;;1.80;1.70;;;6.60;99.90;7.00;96192.00;;;;4970417;28;20258;-67
2022/04/19 09:49:48;;;;;;;2.27;2.07;;;6.60;99.90;7.20;96185.00;;;;4973892;28;20214;-68
2022/04/19 09:52:48;;;;;;;2.17;2.03;;;6.60;99.90;7.30;96184.00;;;;4973990;28;20195;-67
2022/04/19 09:55:18;;;;;;;2.63;2.43;;;6.60;99.90;6.90;96174.00;;;;4971280;28;20223;-68
2022/04/19 09:57:48;;;;;;;2.60;2.20;;;6.60;99.90;7.40;96167.00;;;;4973742;28;20199;-68
2022/04/19 10:00:19;;;;;;;2.00;1.90;;;6.60;99.90;7.80;96175.00;;;;4974505;28;20205;-67
2022/04/19 10:08:21;;;;;;;2.00;1.90;;;6.90;99.90;7.40;96167.00;;;;4973330;28;20207;-68
2022/04/19 10:10:56;;;;;;;4.53;2.40;;;6.90;99.90;7.70;96161.00;;;;4974090;28;20203;-68
2022/04/19 10:13:26;;;;;;;2.30;2.10;;;6.80;99.90;8.00;96160.00;;;;4973808;28;20206;-68
2022/04/19 10:15:55;;;;;;;2.13;1.93;;;7.00;99.90;8.00;96168.00;;;;4973225;28;20657;-68
2022/04/19 10:18:23;;;;;;;2.63;1.93;;;7.00;99.90;7.80;96158.00;;;;4973051;28;20218;-68
2022/04/19 10:20:58;;;;;;;1.50;1.40;;;7.10;99.90;6.60;96154.00;;;;4973462;28;20451;-67
2022/04/19 10:23:37;;;;;;;1.73;1.63;;;6.90;99.90;6.90;96150.00;;;;4973616;28;20223;-69
2022/04/19 10:26:23;;;;;;;1.60;1.50;;;6.70;99.90;7.10;96153.00;;;;4973422;28;20310;-68
2022/04/19 10:28:56;;;;;;;2.13;2.00;;;6.70;99.90;7.10;96152.00;;;;4973047;28;20227;-68
2022/04/19 10:31:31;;;;;;;1.73;1.50;;;6.60;99.90;7.30;96147.00;;;;4973647;28;20203;-67
2022/04/19 10:34:03;;;;;;;2.60;2.30;;;6.70;99.90;7.50;96138.00;;;;4971337;28;20195;-68
2022/04/19 10:36:40;;;;;;;2.40;2.20;;;6.60;99.90;7.40;96146.00;;;;4972582;28;20220;-69
2022/04/19 10:39:32;;;;;;;2.13;2.03;;;6.70;99.90;7.70;96153.00;;;;4967153;28;20670;-69
2022/04/19 10:42:03;;;;;;;1.73;1.63;;;6.70;99.90;7.70;96143.00;;;;4964890;28;20199;-68
2022/04/19 10:44:49;;;;;;;2.00;1.80;;;6.80;99.90;7.80;96144.00;;;;4973021;28;20230;-69
2022/04/19 10:47:19;;;;;;;4.47;2.20;;;6.80;99.90;7.60;96148.00;;;;4966217;28;20306;-68
2022/04/19 10:49:59;;;;;;;1.80;1.70;;;6.90;99.90;7.10;96138.00;;;;4973015;28;20203;-68
2022/04/19 10:52:48;;;;;;;2.20;2.10;;;6.90;99.90;7.50;96142.00;;;;4972530;28;20195;-68
2022/04/19 10:55:31;;;;;;;2.50;2.30;;;6.80;99.90;7.70;96149.00;;;;4964171;28;20223;-68
2022/04/19 10:58:12;;;;;;;2.33;2.13;;;6.80;99.90;7.60;96145.00;;;;4972381;28;20203;-68
2022/04/19 11:00:52;;;;;;;3.23;2.20;;;6.80;99.90;7.70;96151.00;;;;4973021;28;20211;-68
2022/04/19 11:03:52;;;;;;;1.87;1.77;;;6.80;99.90;7.90;96149.00;;;;4965559;28;20223;-68
2022/04/19 11:06:40;;;;;;;2.17;1.97;;;6.90;99.90;7.90;96139.00;;;;4966121;28;20258;-67
2022/04/19 11:09:16;;;;;;;2.00;1.90;;;7.00;99.90;8.00;96137.00;;;;4968730;28;20213;-67
2022/04/19 11:11:50;;;;;;;3.03;2.27;;;7.00;99.90;7.90;96147.00;;;;4970473;28;20254;-68
2022/04/19 11:14:47;;;;;;;2.17;2.07;;;7.10;99.90;7.50;96131.00;;;;4969060;28;20215;-69
2022/04/19 11:17:32;;;;;;;2.20;2.00;;;7.10;99.90;7.60;96134.00;;;;4967357;28;20301;-68
2022/04/19 11:20:14;;;;;;;1.87;1.77;;;7.10;99.90;7.80;96129.00;;;;4969857;28;20199;-68
2022/04/19 11:22:47;;;;;;;2.87;2.03;;;7.10;99.90;8.00;96128.00;;;;4971526;28;20210;-68
2022/04/19 11:25:16;;;;;;;3.87;2.23;;;7.10;99.90;8.20;96133.00;;;;4972395;28;20229;-68
2022/04/19 11:28:24;;;;;;;2.40;2.20;;;7.20;99.90;8.30;96140.00;;;;4978630;28;20204;-68
2022/04/19 11:31:15;;;;;;;2.17;1.97;;;7.20;99.90;8.00;96132.00;;;;4971098;28;20199;-68
2022/04/19 11:33:45;;;;;;;2.30;2.10;;;7.30;99.90;7.80;96120.00;;;;4961187;28;20203;-69
2022/04/19 11:36:16;;;;;;;2.30;2.10;;;7.20;99.90;7.50;96123.00;;;;4972007;28;20219;-68
2022/04/19 11:38:48;;;;;;;2.47;2.27;;;7.20;99.90;7.60;96119.00;;;;4971799;28;20207;-68
2022/04/19 11:46:57;;;;;;;2.60;2.40;;;7.10;99.90;8.20;96124.00;;;;4969686;28;20298;-67
2022/04/19 11:49:34;;;;;;;2.10;2.00;;;7.30;99.90;8.20;96124.00;;;;4971183;28;20230;-67
2022/04/19 11:52:08;;;;;;;2.30;2.10;;;7.30;99.90;8.10;96132.00;;;;4971587;28;20207;-67
2022/04/19 11:54:37;;;;;;;5.83;5.23;;;7.40;99.90;8.10;96114.00;;;;4972005;28;20199;-67
2022/04/19 11:57:07;;;;;;;2.80;2.50;;;7.40;99.90;7.50;96114.00;;;;4963296;28;20302;-67
2022/04/19 11:59:39;;;;;;;2.70;2.07;;;7.40;99.90;7.50;96115.00;;;;4971430;28;20204;-67
2022/04/19 12:02:16;;;;;;;2.57;2.40;;;7.30;99.90;7.50;96103.00;;;;4971211;28;20257;-67